sensor_id;sensor_type;location;lat;lon;timestamp;P1;durP1;ratioP1;P2;durP2;ratioP2
27612;SDS011;15036;48.094;-1.690;2023-03-31T00:02:17;75.53;;;12.48;;
27612;SDS011;15036;48.094;-1.690;2023-03-31T00:04:46;65.15;;;11.15;;
27612;SDS011;15036;48.094;-1.690;2023-03-31T00:07:16;62.90;;;12.50;;
27612;SDS011;15036;48.094;-1.690;2023-03-31T00:09:46;59.47;;;11.45;;
27612;SDS011;15036;48.094;-1.690;2023-03-31T00:12:12;63.28;;;11.98;;
27612;SDS011;15036;48.094;-1.690;2023-03-31T00:14:39;64.47;;;13.05;;
27612;SDS011;15036;48.094;-1.690;2023-03-31T00:17:06;65.25;;;12.85;;
27612;SDS011;15036;48.094;-1.690;2023-03-31T00:19:32;61.75;;;11.73;;
27612;SDS011;15036;48.094;-1.690;2023-03-31T00:21:58;67.93;;;12.68;;
27612;SDS011;15036;48.094;-1.690;2023-03-31T00:24:29;57.45;;;11.50;;
27612;SDS011;15036;48.094;-1.690;2023-03-31T00:27:00;59.75;;;12.60;;
27612;SDS011;15036;48.094;-1.690;2023-03-31T00:29:28;65.40;;;12.13;;
27612;SDS011;15036;48.094;-1.690;2023-03-31T00:31:53;61.35;;;12.43;;
27612;SDS011;15036;48.094;-1.690;2023-03-31T00:34:19;62.45;;;12.30;;
27612;SDS011;15036;48.094;-1.690;2023-03-31T00:36:45;59.45;;;11.52;;
27612;SDS011;15036;48.094;-1.690;2023-03-31T00:39:17;57.78;;;11.35;;
27612;SDS011;15036;48.094;-1.690;2023-03-31T00:41:43;61.33;;;11.90;;
27612;SDS011;15036;48.094;-1.690;2023-03-31T00:44:13;58.03;;;11.82;;
27612;SDS011;15036;48.094;-1.690;2023-03-31T00:49:30;55.92;;;11.30;;
27612;SDS011;15036;48.094;-1.690;2023-03-31T00:52:01;58.55;;;11.98;;
27612;SDS011;15036;48.094;-1.690;2023-03-31T00:54:33;55.05;;;11.70;;
27612;SDS011;15036;48.094;-1.690;2023-03-31T00:57:00;58.88;;;12.40;;
27612;SDS011;15036;48.094;-1.690;2023-03-31T00:59:30;58.30;;;11.57;;
27612;SDS011;15036;48.094;-1.690;2023-03-31T01:02:01;61.58;;;11.63;;
27612;SDS011;15036;48.094;-1.690;2023-03-31T01:04:27;56.22;;;11.52;;
27612;SDS011;15036;48.094;-1.690;2023-03-31T01:09:40;64.57;;;12.55;;
27612;SDS011;15036;48.094;-1.690;2023-03-31T01:12:11;60.83;;;11.60;;
27612;SDS011;15036;48.094;-1.690;2023-03-31T01:14:39;59.08;;;11.93;;
27612;SDS011;15036;48.094;-1.690;2023-03-31T01:17:05;51.67;;;11.50;;
27612;SDS011;15036;48.094;-1.690;2023-03-31T01:30:58;37.88;;;8.75;;
27612;SDS011;15036;48.094;-1.690;2023-03-31T01:39:16;46.28;;;9.25;;
27612;SDS011;15036;48.094;-1.690;2023-03-31T01:42:07;53.28;;;10.48;;
27612;SDS011;15036;48.094;-1.690;2023-03-31T01:50:14;66.63;;;12.10;;
27612;SDS011;15036;48.094;-1.690;2023-03-31T01:52:52;56.22;;;11.57;;
27612;SDS011;15036;48.094;-1.690;2023-03-31T01:55:28;55.03;;;11.00;;
27612;SDS011;15036;48.094;-1.690;2023-03-31T01:58:08;67.00;;;11.65;;
27612;SDS011;15036;48.094;-1.690;2023-03-31T02:00:47;52.88;;;10.35;;
27612;SDS011;15036;48.094;-1.690;2023-03-31T02:03:22;54.70;;;10.38;;
27612;SDS011;15036;48.094;-1.690;2023-03-31T02:05:53;63.63;;;11.77;;
27612;SDS011;15036;48.094;-1.690;2023-03-31T02:08:22;50.63;;;11.10;;
27612;SDS011;15036;48.094;-1.690;2023-03-31T02:10:54;66.32;;;11.80;;
27612;SDS011;15036;48.094;-1.690;2023-03-31T02:13:21;61.00;;;11.93;;
27612;SDS011;15036;48.094;-1.690;2023-03-31T02:15:50;63.42;;;11.52;;
27612;SDS011;15036;48.094;-1.690;2023-03-31T02:18:22;55.58;;;10.93;;
27612;SDS011;15036;48.094;-1.690;2023-03-31T02:20:51;53.30;;;10.33;;
27612;SDS011;15036;48.094;-1.690;2023-03-31T02:23:22;46.07;;;9.80;;
27612;SDS011;15036;48.094;-1.690;2023-03-31T02:26:12;52.85;;;9.23;;
27612;SDS011;15036;48.094;-1.690;2023-03-31T02:28:40;47.00;;;8.73;;
27612;SDS011;15036;48.094;-1.690;2023-03-31T02:34:03;57.17;;;9.57;;
27612;SDS011;15036;48.094;-1.690;2023-03-31T02:36:29;45.92;;;9.75;;
27612;SDS011;15036;48.094;-1.690;2023-03-31T02:38:59;41.83;;;9.63;;
27612;SDS011;15036;48.094;-1.690;2023-03-31T02:41:29;41.38;;;8.57;;
27612;SDS011;15036;48.094;-1.690;2023-03-31T02:43:55;36.70;;;8.30;;
27612;SDS011;15036;48.094;-1.690;2023-03-31T02:46:20;42.25;;;8.30;;
27612;SDS011;15036;48.094;-1.690;2023-03-31T03:02:41;40.00;;;9.02;;
27612;SDS011;15036;48.094;-1.690;2023-03-31T03:13:30;40.35;;;8.30;;
27612;SDS011;15036;48.094;-1.690;2023-03-31T03:16:05;42.50;;;8.00;;
27612;SDS011;15036;48.094;-1.690;2023-03-31T03:18:37;40.28;;;8.57;;
27612;SDS011;15036;48.094;-1.690;2023-03-31T03:21:03;39.13;;;8.25;;
27612;SDS011;15036;48.094;-1.690;2023-03-31T03:23:29;33.13;;;7.05;;
27612;SDS011;15036;48.094;-1.690;2023-03-31T03:25:55;31.77;;;7.25;;
27612;SDS011;15036;48.094;-1.690;2023-03-31T03:28:21;35.78;;;7.53;;
27612;SDS011;15036;48.094;-1.690;2023-03-31T03:30:47;36.22;;;7.10;;
27612;SDS011;15036;48.094;-1.690;2023-03-31T03:33:12;32.75;;;7.30;;
27612;SDS011;15036;48.094;-1.690;2023-03-31T03:35:41;34.88;;;6.82;;
27612;SDS011;15036;48.094;-1.690;2023-03-31T03:38:07;30.85;;;7.30;;
27612;SDS011;15036;48.094;-1.690;2023-03-31T03:40:33;32.00;;;7.32;;
27612;SDS011;15036;48.094;-1.690;2023-03-31T03:42:59;31.90;;;6.72;;
27612;SDS011;15036;48.094;-1.690;2023-03-31T03:45:24;40.22;;;7.35;;
27612;SDS011;15036;48.094;-1.690;2023-03-31T03:47:50;33.35;;;6.78;;
27612;SDS011;15036;48.094;-1.690;2023-03-31T03:50:15;39.63;;;7.65;;
27612;SDS011;15036;48.094;-1.690;2023-03-31T03:52:41;30.60;;;6.97;;
27612;SDS011;15036;48.094;-1.690;2023-03-31T03:55:06;35.40;;;7.47;;
27612;SDS011;15036;48.094;-1.690;2023-03-31T03:57:32;30.83;;;6.25;;
27612;SDS011;15036;48.094;-1.690;2023-03-31T03:59:57;35.50;;;6.88;;
27612;SDS011;15036;48.094;-1.690;2023-03-31T04:02:22;31.67;;;7.10;;
27612;SDS011;15036;48.094;-1.690;2023-03-31T04:04:48;39.88;;;7.85;;
27612;SDS011;15036;48.094;-1.690;2023-03-31T04:07:15;39.25;;;8.05;;
27612;SDS011;15036;48.094;-1.690;2023-03-31T04:09:41;38.30;;;7.53;;
27612;SDS011;15036;48.094;-1.690;2023-03-31T04:12:06;39.75;;;7.70;;
27612;SDS011;15036;48.094;-1.690;2023-03-31T04:14:32;33.33;;;7.00;;
27612;SDS011;15036;48.094;-1.690;2023-03-31T04:16:57;36.55;;;8.27;;
27612;SDS011;15036;48.094;-1.690;2023-03-31T04:19:22;34.97;;;7.15;;
27612;SDS011;15036;48.094;-1.690;2023-03-31T04:21:50;35.15;;;6.82;;
27612;SDS011;15036;48.094;-1.690;2023-03-31T04:24:26;33.97;;;7.05;;
27612;SDS011;15036;48.094;-1.690;2023-03-31T04:26:56;36.55;;;6.55;;
27612;SDS011;15036;48.094;-1.690;2023-03-31T04:29:23;37.63;;;7.47;;
27612;SDS011;15036;48.094;-1.690;2023-03-31T04:31:50;29.30;;;6.28;;
27612;SDS011;15036;48.094;-1.690;2023-03-31T04:34:22;46.55;;;8.18;;
27612;SDS011;15036;48.094;-1.690;2023-03-31T04:36:50;34.72;;;7.53;;
27612;SDS011;15036;48.094;-1.690;2023-03-31T04:39:17;38.50;;;8.73;;
27612;SDS011;15036;48.094;-1.690;2023-03-31T04:41:55;39.05;;;7.65;;
27612;SDS011;15036;48.094;-1.690;2023-03-31T04:44:21;36.05;;;7.55;;
27612;SDS011;15036;48.094;-1.690;2023-03-31T04:46:47;34.63;;;7.05;;
27612;SDS011;15036;48.094;-1.690;2023-03-31T04:49:12;37.83;;;7.13;;
27612;SDS011;15036;48.094;-1.690;2023-03-31T04:51:38;36.13;;;6.82;;
27612;SDS011;15036;48.094;-1.690;2023-03-31T04:54:03;36.38;;;7.15;;
27612;SDS011;15036;48.094;-1.690;2023-03-31T04:56:29;36.17;;;7.47;;
27612;SDS011;15036;48.094;-1.690;2023-03-31T04:58:55;34.35;;;7.38;;
27612;SDS011;15036;48.094;-1.690;2023-03-31T05:01:20;31.90;;;6.95;;
27612;SDS011;15036;48.094;-1.690;2023-03-31T05:03:45;31.35;;;7.60;;
27612;SDS011;15036;48.094;-1.690;2023-03-31T05:06:12;36.00;;;7.45;;
27612;SDS011;15036;48.094;-1.690;2023-03-31T05:08:38;30.15;;;6.47;;
27612;SDS011;15036;48.094;-1.690;2023-03-31T05:11:03;30.88;;;6.90;;
27612;SDS011;15036;48.094;-1.690;2023-03-31T05:13:30;31.73;;;6.55;;
27612;SDS011;15036;48.094;-1.690;2023-03-31T05:15:55;37.22;;;7.00;;
27612;SDS011;15036;48.094;-1.690;2023-03-31T05:18:20;34.63;;;6.80;;
27612;SDS011;15036;48.094;-1.690;2023-03-31T05:20:46;30.45;;;6.65;;
27612;SDS011;15036;48.094;-1.690;2023-03-31T05:23:11;29.85;;;7.38;;
27612;SDS011;15036;48.094;-1.690;2023-03-31T05:25:37;34.28;;;7.32;;
27612;SDS011;15036;48.094;-1.690;2023-03-31T05:28:06;32.47;;;6.65;;
27612;SDS011;15036;48.094;-1.690;2023-03-31T05:30:32;33.60;;;6.78;;
27612;SDS011;15036;48.094;-1.690;2023-03-31T05:32:58;33.55;;;6.57;;
27612;SDS011;15036;48.094;-1.690;2023-03-31T05:35:23;32.45;;;7.43;;
27612;SDS011;15036;48.094;-1.690;2023-03-31T05:37:49;38.22;;;8.20;;
27612;SDS011;15036;48.094;-1.690;2023-03-31T05:40:15;40.83;;;7.80;;
27612;SDS011;15036;48.094;-1.690;2023-03-31T05:42:40;39.53;;;7.03;;
27612;SDS011;15036;48.094;-1.690;2023-03-31T05:45:06;37.13;;;7.43;;
27612;SDS011;15036;48.094;-1.690;2023-03-31T05:47:31;33.42;;;6.57;;
27612;SDS011;15036;48.094;-1.690;2023-03-31T05:49:57;34.33;;;6.80;;
27612;SDS011;15036;48.094;-1.690;2023-03-31T05:52:22;34.30;;;6.65;;
27612;SDS011;15036;48.094;-1.690;2023-03-31T05:54:48;33.42;;;6.65;;
27612;SDS011;15036;48.094;-1.690;2023-03-31T05:57:13;36.40;;;6.38;;
27612;SDS011;15036;48.094;-1.690;2023-03-31T05:59:39;28.15;;;6.43;;
27612;SDS011;15036;48.094;-1.690;2023-03-31T06:02:06;35.10;;;6.95;;
27612;SDS011;15036;48.094;-1.690;2023-03-31T06:04:32;36.03;;;7.18;;
27612;SDS011;15036;48.094;-1.690;2023-03-31T06:06:57;31.67;;;7.10;;
27612;SDS011;15036;48.094;-1.690;2023-03-31T06:09:23;29.98;;;5.13;;
27612;SDS011;15036;48.094;-1.690;2023-03-31T06:11:49;33.97;;;6.30;;
27612;SDS011;15036;48.094;-1.690;2023-03-31T06:14:15;31.45;;;6.40;;
27612;SDS011;15036;48.094;-1.690;2023-03-31T06:16:40;31.60;;;6.57;;
27612;SDS011;15036;48.094;-1.690;2023-03-31T06:19:07;36.00;;;7.30;;
27612;SDS011;15036;48.094;-1.690;2023-03-31T06:21:33;37.10;;;6.25;;
27612;SDS011;15036;48.094;-1.690;2023-03-31T06:24:00;40.80;;;6.57;;
27612;SDS011;15036;48.094;-1.690;2023-03-31T06:26:26;29.15;;;5.95;;
27612;SDS011;15036;48.094;-1.690;2023-03-31T06:28:51;33.40;;;6.80;;
27612;SDS011;15036;48.094;-1.690;2023-03-31T06:31:21;36.40;;;6.63;;
27612;SDS011;15036;48.094;-1.690;2023-03-31T06:33:49;34.63;;;6.70;;
27612;SDS011;15036;48.094;-1.690;2023-03-31T06:36:16;26.00;;;6.15;;
27612;SDS011;15036;48.094;-1.690;2023-03-31T06:38:44;26.80;;;5.40;;
27612;SDS011;15036;48.094;-1.690;2023-03-31T06:41:11;30.45;;;6.55;;
27612;SDS011;15036;48.094;-1.690;2023-03-31T06:43:37;22.80;;;5.15;;
27612;SDS011;15036;48.094;-1.690;2023-03-31T06:46:03;29.35;;;6.05;;
27612;SDS011;15036;48.094;-1.690;2023-03-31T06:48:29;34.20;;;6.50;;
27612;SDS011;15036;48.094;-1.690;2023-03-31T06:50:55;34.78;;;6.32;;
27612;SDS011;15036;48.094;-1.690;2023-03-31T06:53:23;29.02;;;6.70;;
27612;SDS011;15036;48.094;-1.690;2023-03-31T06:55:48;30.67;;;6.10;;
27612;SDS011;15036;48.094;-1.690;2023-03-31T06:58:14;26.67;;;5.75;;
27612;SDS011;15036;48.094;-1.690;2023-03-31T07:00:39;30.98;;;6.35;;
27612;SDS011;15036;48.094;-1.690;2023-03-31T07:03:05;30.75;;;5.70;;
27612;SDS011;15036;48.094;-1.690;2023-03-31T07:05:32;31.40;;;5.88;;
27612;SDS011;15036;48.094;-1.690;2023-03-31T07:07:58;28.83;;;5.85;;
27612;SDS011;15036;48.094;-1.690;2023-03-31T07:10:25;27.58;;;5.93;;
27612;SDS011;15036;48.094;-1.690;2023-03-31T07:12:52;34.13;;;6.88;;
27612;SDS011;15036;48.094;-1.690;2023-03-31T07:15:19;40.22;;;6.50;;
27612;SDS011;15036;48.094;-1.690;2023-03-31T07:17:46;31.25;;;6.40;;
27612;SDS011;15036;48.094;-1.690;2023-03-31T07:20:15;30.30;;;6.60;;
27612;SDS011;15036;48.094;-1.690;2023-03-31T07:22:46;36.03;;;7.70;;
27612;SDS011;15036;48.094;-1.690;2023-03-31T07:25:13;36.00;;;6.90;;
27612;SDS011;15036;48.094;-1.690;2023-03-31T07:27:40;35.30;;;7.00;;
27612;SDS011;15036;48.094;-1.690;2023-03-31T07:30:06;31.67;;;6.43;;
27612;SDS011;15036;48.094;-1.690;2023-03-31T07:32:33;34.70;;;6.72;;
27612;SDS011;15036;48.094;-1.690;2023-03-31T07:34:59;33.80;;;7.05;;
27612;SDS011;15036;48.094;-1.690;2023-03-31T07:37:25;28.20;;;6.22;;
27612;SDS011;15036;48.094;-1.690;2023-03-31T07:39:50;34.83;;;7.10;;
27612;SDS011;15036;48.094;-1.690;2023-03-31T07:42:16;29.65;;;6.60;;
27612;SDS011;15036;48.094;-1.690;2023-03-31T07:44:41;33.63;;;6.50;;
27612;SDS011;15036;48.094;-1.690;2023-03-31T07:47:07;36.63;;;7.60;;
27612;SDS011;15036;48.094;-1.690;2023-03-31T07:49:33;33.90;;;7.30;;
27612;SDS011;15036;48.094;-1.690;2023-03-31T07:51:59;34.65;;;6.63;;
27612;SDS011;15036;48.094;-1.690;2023-03-31T07:54:25;30.27;;;6.15;;
27612;SDS011;15036;48.094;-1.690;2023-03-31T07:56:51;32.30;;;6.53;;
27612;SDS011;15036;48.094;-1.690;2023-03-31T07:59:16;32.92;;;6.25;;
27612;SDS011;15036;48.094;-1.690;2023-03-31T08:01:42;33.42;;;6.72;;
27612;SDS011;15036;48.094;-1.690;2023-03-31T08:04:08;27.20;;;5.65;;
27612;SDS011;15036;48.094;-1.690;2023-03-31T08:06:36;26.75;;;6.07;;
27612;SDS011;15036;48.094;-1.690;2023-03-31T08:09:01;27.58;;;5.30;;
27612;SDS011;15036;48.094;-1.690;2023-03-31T08:11:29;27.27;;;5.53;;
27612;SDS011;15036;48.094;-1.690;2023-03-31T08:13:55;28.38;;;5.38;;
27612;SDS011;15036;48.094;-1.690;2023-03-31T08:16:20;28.73;;;6.28;;
27612;SDS011;15036;48.094;-1.690;2023-03-31T08:21:11;30.55;;;4.50;;
27612;SDS011;15036;48.094;-1.690;2023-03-31T08:23:37;31.10;;;6.95;;
27612;SDS011;15036;48.094;-1.690;2023-03-31T08:31:04;28.48;;;5.57;;
27612;SDS011;15036;48.094;-1.690;2023-03-31T08:33:31;28.33;;;6.80;;
27612;SDS011;15036;48.094;-1.690;2023-03-31T08:36:03;29.30;;;5.32;;
27612;SDS011;15036;48.094;-1.690;2023-03-31T08:38:30;28.13;;;4.97;;
27612;SDS011;15036;48.094;-1.690;2023-03-31T08:41:00;27.15;;;5.60;;
27612;SDS011;15036;48.094;-1.690;2023-03-31T08:45:57;20.50;;;5.85;;
27612;SDS011;15036;48.094;-1.690;2023-03-31T08:48:57;24.23;;;5.22;;
27612;SDS011;15036;48.094;-1.690;2023-03-31T08:51:20;33.45;;;6.43;;
27612;SDS011;15036;48.094;-1.690;2023-03-31T08:56:17;21.17;;;4.78;;
27612;SDS011;15036;48.094;-1.690;2023-03-31T09:12:52;21.50;;;4.32;;
27612;SDS011;15036;48.094;-1.690;2023-03-31T09:18:30;26.88;;;5.05;;
27612;SDS011;15036;48.094;-1.690;2023-03-31T09:21:11;22.75;;;5.35;;
27612;SDS011;15036;48.094;-1.690;2023-03-31T09:23:39;23.67;;;5.25;;
27612;SDS011;15036;48.094;-1.690;2023-03-31T09:26:11;28.10;;;5.38;;
27612;SDS011;15036;48.094;-1.690;2023-03-31T09:28:47;29.80;;;6.05;;
27612;SDS011;15036;48.094;-1.690;2023-03-31T09:31:16;23.85;;;5.32;;
27612;SDS011;15036;48.094;-1.690;2023-03-31T09:33:44;27.00;;;5.15;;
27612;SDS011;15036;48.094;-1.690;2023-03-31T09:36:16;26.52;;;5.07;;
27612;SDS011;15036;48.094;-1.690;2023-03-31T09:38:43;26.95;;;6.40;;
27612;SDS011;15036;48.094;-1.690;2023-03-31T09:41:10;25.92;;;6.53;;
27612;SDS011;15036;48.094;-1.690;2023-03-31T09:43:40;27.23;;;6.53;;
27612;SDS011;15036;48.094;-1.690;2023-03-31T09:51:16;27.23;;;5.68;;
27612;SDS011;15036;48.094;-1.690;2023-03-31T09:53:46;23.33;;;5.15;;
27612;SDS011;15036;48.094;-1.690;2023-03-31T09:59:00;27.58;;;5.47;;
27612;SDS011;15036;48.094;-1.690;2023-03-31T10:03:53;23.40;;;4.03;;
27612;SDS011;15036;48.094;-1.690;2023-03-31T10:11:26;18.92;;;4.32;;
27612;SDS011;15036;48.094;-1.690;2023-03-31T10:13:52;25.50;;;4.63;;
27612;SDS011;15036;48.094;-1.690;2023-03-31T10:21:47;20.67;;;4.90;;
27612;SDS011;15036;48.094;-1.690;2023-03-31T10:24:19;23.15;;;5.40;;
27612;SDS011;15036;48.094;-1.690;2023-03-31T10:26:47;18.50;;;4.22;;
27612;SDS011;15036;48.094;-1.690;2023-03-31T10:29:16;23.73;;;4.93;;
27612;SDS011;15036;48.094;-1.690;2023-03-31T10:31:49;20.33;;;4.70;;
27612;SDS011;15036;48.094;-1.690;2023-03-31T10:34:16;18.02;;;5.10;;
27612;SDS011;15036;48.094;-1.690;2023-03-31T10:36:46;21.75;;;4.40;;
27612;SDS011;15036;48.094;-1.690;2023-03-31T10:39:14;22.70;;;4.57;;
27612;SDS011;15036;48.094;-1.690;2023-03-31T10:41:41;23.92;;;4.82;;
27612;SDS011;15036;48.094;-1.690;2023-03-31T10:44:22;22.27;;;4.30;;
27612;SDS011;15036;48.094;-1.690;2023-03-31T10:47:05;20.23;;;4.60;;
27612;SDS011;15036;48.094;-1.690;2023-03-31T10:49:40;24.50;;;5.38;;
27612;SDS011;15036;48.094;-1.690;2023-03-31T10:52:16;24.55;;;4.85;;
27612;SDS011;15036;48.094;-1.690;2023-03-31T10:54:59;23.15;;;5.13;;
27612;SDS011;15036;48.094;-1.690;2023-03-31T10:57:38;23.45;;;5.05;;
27612;SDS011;15036;48.094;-1.690;2023-03-31T11:00:10;27.70;;;5.20;;
27612;SDS011;15036;48.094;-1.690;2023-03-31T11:05:22;21.60;;;4.13;;
27612;SDS011;15036;48.094;-1.690;2023-03-31T11:27:34;22.75;;;4.70;;
27612;SDS011;15036;48.094;-1.690;2023-03-31T11:43:01;14.65;;;3.08;;
27612;SDS011;15036;48.094;-1.690;2023-03-31T11:45:40;13.70;;;2.67;;
27612;SDS011;15036;48.094;-1.690;2023-03-31T11:48:15;14.73;;;2.95;;
27612;SDS011;15036;48.094;-1.690;2023-03-31T11:50:46;13.52;;;3.40;;
27612;SDS011;15036;48.094;-1.690;2023-03-31T11:53:17;17.27;;;3.58;;
27612;SDS011;15036;48.094;-1.690;2023-03-31T11:55:49;17.52;;;3.40;;
27612;SDS011;15036;48.094;-1.690;2023-03-31T12:01:13;13.65;;;3.50;;
27612;SDS011;15036;48.094;-1.690;2023-03-31T12:09:30;19.50;;;3.80;;
27612;SDS011;15036;48.094;-1.690;2023-03-31T12:14:33;20.95;;;4.47;;
27612;SDS011;15036;48.094;-1.690;2023-03-31T12:17:14;18.98;;;4.38;;
27612;SDS011;15036;48.094;-1.690;2023-03-31T12:22:30;23.70;;;4.45;;
27612;SDS011;15036;48.094;-1.690;2023-03-31T12:25:01;23.98;;;4.72;;
27612;SDS011;15036;48.094;-1.690;2023-03-31T12:30:39;25.42;;;4.63;;
27612;SDS011;15036;48.094;-1.690;2023-03-31T12:44:32;16.40;;;3.35;;
27612;SDS011;15036;48.094;-1.690;2023-03-31T12:53:09;15.02;;;3.78;;
27612;SDS011;15036;48.094;-1.690;2023-03-31T12:55:54;19.48;;;3.63;;
27612;SDS011;15036;48.094;-1.690;2023-03-31T13:09:05;16.08;;;3.90;;
27612;SDS011;15036;48.094;-1.690;2023-03-31T13:11:51;17.45;;;3.55;;
27612;SDS011;15036;48.094;-1.690;2023-03-31T13:14:23;20.27;;;4.15;;
27612;SDS011;15036;48.094;-1.690;2023-03-31T13:16:53;18.60;;;3.92;;
27612;SDS011;15036;48.094;-1.690;2023-03-31T13:19:47;15.18;;;3.20;;
27612;SDS011;15036;48.094;-1.690;2023-03-31T13:22:29;14.27;;;3.30;;
27612;SDS011;15036;48.094;-1.690;2023-03-31T13:27:51;16.40;;;3.58;;
27612;SDS011;15036;48.094;-1.690;2023-03-31T13:33:04;13.77;;;3.20;;
27612;SDS011;15036;48.094;-1.690;2023-03-31T13:35:34;12.02;;;3.05;;
27612;SDS011;15036;48.094;-1.690;2023-03-31T13:41:00;12.60;;;3.53;;
27612;SDS011;15036;48.094;-1.690;2023-03-31T13:44:42;12.45;;;2.83;;
27612;SDS011;15036;48.094;-1.690;2023-03-31T13:51:55;12.82;;;2.50;;
27612;SDS011;15036;48.094;-1.690;2023-03-31T14:14:46;14.50;;;3.22;;
27612;SDS011;15036;48.094;-1.690;2023-03-31T14:17:11;17.23;;;3.25;;
27612;SDS011;15036;48.094;-1.690;2023-03-31T14:25:10;12.60;;;3.08;;
27612;SDS011;15036;48.094;-1.690;2023-03-31T14:27:50;11.05;;;2.40;;
27612;SDS011;15036;48.094;-1.690;2023-03-31T14:30:36;13.48;;;2.40;;
27612;SDS011;15036;48.094;-1.690;2023-03-31T14:41:26;10.35;;;2.65;;
27612;SDS011;15036;48.094;-1.690;2023-03-31T14:46:21;11.48;;;2.80;;
27612;SDS011;15036;48.094;-1.690;2023-03-31T14:48:47;14.93;;;3.72;;
27612;SDS011;15036;48.094;-1.690;2023-03-31T14:51:16;14.07;;;3.00;;
27612;SDS011;15036;48.094;-1.690;2023-03-31T14:53:43;12.30;;;3.88;;
27612;SDS011;15036;48.094;-1.690;2023-03-31T14:56:10;14.35;;;3.47;;
27612;SDS011;15036;48.094;-1.690;2023-03-31T14:58:39;14.75;;;3.60;;
27612;SDS011;15036;48.094;-1.690;2023-03-31T15:01:09;12.80;;;2.92;;
27612;SDS011;15036;48.094;-1.690;2023-03-31T15:03:41;12.30;;;3.10;;
27612;SDS011;15036;48.094;-1.690;2023-03-31T15:08:33;11.98;;;2.55;;
27612;SDS011;15036;48.094;-1.690;2023-03-31T15:11:02;10.43;;;2.85;;
27612;SDS011;15036;48.094;-1.690;2023-03-31T15:13:40;14.60;;;3.00;;
27612;SDS011;15036;48.094;-1.690;2023-03-31T15:19:20;12.45;;;2.78;;
27612;SDS011;15036;48.094;-1.690;2023-03-31T15:24:26;17.85;;;3.47;;
27612;SDS011;15036;48.094;-1.690;2023-03-31T15:29:56;14.85;;;2.85;;
27612;SDS011;15036;48.094;-1.690;2023-03-31T15:32:26;13.18;;;2.85;;
27612;SDS011;15036;48.094;-1.690;2023-03-31T15:34:54;16.75;;;3.22;;
27612;SDS011;15036;48.094;-1.690;2023-03-31T15:37:28;13.90;;;2.83;;
27612;SDS011;15036;48.094;-1.690;2023-03-31T15:40:00;11.48;;;2.88;;
27612;SDS011;15036;48.094;-1.690;2023-03-31T15:42:31;13.90;;;3.67;;
27612;SDS011;15036;48.094;-1.690;2023-03-31T16:35:33;10.98;;;3.17;;
27612;SDS011;15036;48.094;-1.690;2023-03-31T16:38:01;16.92;;;4.22;;
27612;SDS011;15036;48.094;-1.690;2023-03-31T16:40:33;15.03;;;3.80;;
27612;SDS011;15036;48.094;-1.690;2023-03-31T16:45:40;15.60;;;4.10;;
27612;SDS011;15036;48.094;-1.690;2023-03-31T16:53:00;12.90;;;3.63;;
